createdAt,value
2017-08-08T00:00:31.097Z,86.94
2017-08-08T00:01:31.090Z,87.23
2017-08-08T00:02:31.089Z,87.14
2017-08-08T00:03:31.085Z,87.52
2017-08-08T00:04:31.067Z,87.9
2017-08-08T00:05:31.095Z,87.52
2017-08-08T00:06:31.059Z,87.52
2017-08-08T00:07:31.061Z,88.09
2017-08-08T00:08:31.066Z,88.09
2017-08-08T00:09:31.049Z,87.71
2017-08-08T00:10:31.039Z,87.71
2017-08-08T00:11:31.044Z,87.81
2017-08-08T00:12:31.044Z,87.71
2017-08-08T00:13:31.039Z,87.81
2017-08-08T00:14:31.022Z,87.81
2017-08-08T00:15:31.030Z,87.81
2017-08-08T00:16:31.025Z,87.81
2017-08-08T00:17:31.018Z,87.9
2017-08-08T00:18:31.004Z,87.52
2017-08-08T00:19:31.015Z,87.71
2017-08-08T00:20:31.003Z,87.9
2017-08-08T00:21:30.988Z,87.81
2017-08-08T00:22:30.978Z,87.81
2017-08-08T00:23:30.989Z,87.9
2017-08-08T00:24:30.988Z,88
2017-08-08T00:25:30.663Z,87.71
2017-08-08T00:26:30.961Z,87.81
2017-08-08T00:27:30.973Z,87.52
2017-08-08T00:28:30.958Z,87.62
2017-08-08T00:29:30.960Z,88.09
2017-08-08T00:30:30.953Z,87.71
2017-08-08T00:31:30.950Z,87.71
2017-08-08T00:32:30.933Z,88.09
2017-08-08T00:33:30.633Z,88.29
2017-08-08T00:34:30.924Z,88.29
2017-08-08T00:35:30.932Z,88.38
2017-08-08T00:36:30.921Z,88.29
2017-08-08T00:37:30.919Z,88.48
2017-08-08T00:38:30.916Z,88.38
2017-08-08T00:39:30.917Z,88.19
2017-08-08T00:40:30.584Z,87.9
2017-08-08T00:41:30.588Z,88.19
2017-08-08T00:42:30.589Z,88.67
2017-08-08T00:43:30.576Z,88.53
2017-08-08T00:44:30.885Z,88.76
2017-08-08T00:45:30.882Z,88.81
2017-08-08T00:46:30.561Z,88.81
2017-08-08T00:47:30.559Z,89.1
2017-08-08T00:48:30.885Z,89.15
2017-08-08T00:49:30.547Z,89.1
2017-08-08T00:50:30.842Z,89.15
2017-08-08T00:51:30.540Z,89.48
2017-08-08T00:52:30.835Z,89.01
2017-08-08T00:53:30.529Z,89.15
2017-08-08T00:54:30.824Z,89.2
2017-08-08T00:55:30.836Z,89.29
2017-08-08T00:56:30.516Z,89.2
2017-08-08T00:57:30.810Z,89.2
2017-08-08T00:58:30.509Z,89.01
2017-08-08T00:59:30.491Z,89.1
2017-08-08T01:00:30.501Z,89.29
2017-08-08T01:01:30.792Z,89.2
2017-08-08T01:02:30.791Z,88.72
2017-08-08T01:03:30.791Z,88.72
2017-08-08T01:04:30.784Z,89.01
2017-08-08T01:05:30.771Z,89.1
2017-08-08T01:06:30.764Z,89.1
2017-08-08T01:07:30.775Z,88.81
2017-08-08T01:08:30.766Z,88.91
2017-08-08T01:09:30.752Z,89.01
2017-08-08T01:10:30.749Z,89.01
2017-08-08T01:11:30.747Z,88.91
2017-08-08T01:12:30.745Z,88.62
2017-08-08T01:13:30.743Z,88.62
2017-08-08T01:14:30.734Z,88.62
2017-08-08T01:15:30.730Z,88.62
2017-08-08T01:16:30.727Z,88.24
2017-08-08T01:17:30.706Z,88.72
2017-08-08T01:18:30.715Z,88.72
2017-08-08T01:19:30.715Z,88.62
2017-08-08T01:20:30.699Z,88.62
2017-08-08T01:21:30.694Z,88.81
2017-08-08T01:22:30.696Z,88.81
2017-08-08T01:23:30.672Z,88.81
2017-08-08T01:24:30.678Z,88.91
2017-08-08T01:25:30.679Z,88.72
2017-08-08T01:26:30.670Z,89.29
2017-08-08T01:27:30.656Z,88.81
2017-08-08T01:28:30.649Z,88.91
2017-08-08T01:29:30.349Z,88.91
2017-08-08T01:30:30.655Z,88.43
2017-08-08T01:31:30.644Z,89.01
2017-08-08T01:32:30.658Z,89.2
2017-08-08T01:34:30.630Z,88.91
2017-08-08T01:35:30.631Z,88.43
2017-08-08T01:36:30.617Z,88.15
2017-08-08T01:37:30.619Z,88.15
2017-08-08T01:38:30.595Z,88.43
2017-08-08T01:39:30.604Z,88.72
2017-08-08T01:40:30.600Z,88.81
2017-08-08T01:41:30.595Z,88.81
2017-08-08T01:42:30.592Z,88.43
2017-08-08T01:43:30.591Z,88.34
2017-08-08T01:44:30.580Z,88.24
2017-08-08T01:45:30.572Z,88.81
2017-08-08T01:46:30.570Z,88.15
2017-08-08T01:47:30.567Z,88.62
2017-08-08T01:48:30.560Z,88.81
2017-08-08T01:49:30.541Z,88.43
2017-08-08T01:50:30.542Z,88.53
2017-08-08T01:51:30.528Z,88.53
2017-08-08T01:52:30.534Z,88.34
2017-08-08T01:53:30.530Z,88.24
2017-08-08T01:54:30.525Z,88.15
2017-08-08T01:55:30.517Z,88.15
2017-08-08T01:56:30.521Z,88.15
2017-08-08T01:57:30.513Z,88.53
2017-08-08T01:58:30.500Z,88.62
2017-08-08T01:59:30.502Z,88.05
2017-08-08T02:00:30.498Z,88.05
2017-08-08T02:01:30.485Z,88.15
2017-08-08T02:02:30.485Z,88.24
2017-08-08T02:03:30.481Z,88.05
2017-08-08T02:04:30.479Z,88.24
2017-08-08T02:05:30.474Z,88.05
2017-08-08T02:06:30.462Z,87.95
2017-08-08T02:07:30.463Z,88.43
2017-08-08T02:08:30.458Z,88.43
2017-08-08T02:09:30.444Z,88.15
2017-08-08T02:10:30.447Z,88.43
2017-08-08T02:11:30.445Z,88.72
2017-08-08T02:12:30.430Z,88.72
2017-08-08T02:13:30.437Z,88.72
2017-08-08T02:14:30.425Z,88.62
2017-08-08T02:15:30.426Z,88.62
2017-08-08T02:16:30.410Z,88.53
2017-08-08T02:17:30.395Z,89.01
2017-08-08T02:18:30.408Z,89.1
2017-08-08T02:19:30.406Z,88.34
2017-08-08T02:20:30.399Z,89.1
2017-08-08T02:21:30.376Z,89.01
2017-08-08T02:22:30.388Z,89.01
2017-08-08T02:23:30.386Z,89.01
2017-08-08T02:24:30.372Z,89.01
2017-08-08T02:25:30.373Z,88.72
2017-08-08T02:26:30.352Z,89.2
2017-08-08T02:27:30.364Z,88.91
2017-08-08T02:28:30.350Z,89.01
2017-08-08T02:29:30.358Z,88.81
2017-08-08T02:30:30.343Z,89.39
2017-08-08T02:31:30.346Z,89.39
2017-08-08T02:32:30.323Z,89.01
2017-08-08T02:33:30.317Z,89.1
2017-08-08T02:34:30.328Z,89.1
2017-08-08T02:35:30.312Z,89.2
2017-08-08T02:36:30.319Z,89.2
2017-08-08T02:37:29.987Z,88.81
2017-08-08T02:38:30.295Z,89.01
2017-08-08T02:39:29.987Z,89.39
2017-08-08T02:40:29.981Z,89.58
2017-08-08T02:41:29.975Z,89.77
2017-08-08T02:42:29.970Z,89.77
2017-08-08T02:43:30.265Z,89.96
2017-08-08T02:44:29.965Z,89.96
2017-08-08T02:45:30.262Z,89.29
2017-08-08T02:46:29.942Z,89.67
2017-08-08T02:47:30.254Z,89.39
2017-08-08T02:48:30.249Z,89.39
2017-08-08T02:49:30.242Z,89.58
2017-08-08T02:50:29.928Z,89.48
2017-08-08T02:51:30.238Z,89.67
2017-08-08T02:52:30.239Z,89.77
2017-08-08T02:53:30.228Z,89.77
2017-08-08T02:54:30.227Z,89.77
2017-08-08T02:55:29.904Z,89.96
2017-08-08T02:56:30.207Z,90.16
2017-08-08T02:57:30.199Z,90.06
2017-08-08T02:58:30.199Z,90.34
2017-08-08T02:59:30.191Z,89.58
2017-08-08T03:00:30.194Z,89.77
2017-08-08T03:01:30.168Z,90.34
2017-08-08T03:02:30.167Z,90.25
2017-08-08T03:03:30.157Z,90.16
2017-08-08T03:04:30.169Z,90.25
2017-08-08T03:05:30.163Z,90.63
2017-08-08T03:06:30.143Z,90.16
2017-08-08T03:07:30.151Z,89.96
2017-08-08T03:08:30.136Z,90.16
2017-08-08T03:09:30.141Z,89.87
2017-08-08T03:10:30.129Z,89.96
2017-08-08T03:11:30.135Z,90.11
2017-08-08T03:12:30.116Z,90.16
2017-08-08T03:13:30.121Z,90.34
2017-08-08T03:14:30.109Z,90.53
2017-08-08T03:15:30.100Z,90.53
2017-08-08T03:16:30.103Z,90.44
2017-08-08T03:17:30.084Z,89.96
2017-08-08T03:18:30.091Z,89.77
2017-08-08T03:19:30.078Z,90.06
2017-08-08T03:20:30.088Z,90.16
2017-08-08T03:21:30.073Z,90.53
2017-08-08T03:22:30.080Z,90.25
2017-08-08T03:23:30.061Z,90.92
2017-08-08T03:24:30.055Z,90.63
2017-08-08T03:25:30.059Z,90.63
2017-08-08T03:26:30.040Z,90.63
2017-08-08T03:27:30.040Z,90.68
2017-08-08T03:28:30.032Z,90.92
2017-08-08T03:29:31.471Z,90.68
2017-08-08T03:30:30.020Z,91.02
2017-08-08T03:31:30.016Z,90.97
2017-08-08T03:32:30.010Z,90.49
2017-08-08T03:33:30.010Z,90.82
2017-08-08T03:34:30.003Z,90.82
2017-08-08T03:35:29.999Z,90.82
2017-08-08T03:36:29.985Z,90.63
2017-08-08T03:37:29.983Z,90.88
2017-08-08T03:38:29.989Z,91.25
2017-08-08T03:39:29.986Z,90.97
2017-08-08T03:40:29.961Z,91.02
2017-08-08T03:41:29.965Z,91.11
2017-08-08T03:42:29.961Z,91.11
2017-08-08T03:43:29.958Z,91.39
2017-08-08T03:44:29.942Z,90.82
2017-08-08T03:45:29.949Z,90.82
2017-08-08T03:46:29.932Z,90.78
2017-08-08T03:47:29.940Z,90.73
2017-08-08T03:48:29.931Z,90.97
2017-08-08T03:49:29.931Z,91.11
2017-08-08T03:50:29.919Z,90.92
2017-08-08T03:51:29.908Z,90.16
2017-08-08T03:52:29.918Z,90.25
2017-08-08T03:53:29.901Z,90.25
2017-08-08T03:54:29.897Z,89.87
2017-08-08T03:55:29.897Z,90.34
2017-08-08T03:56:29.876Z,90.06
2017-08-08T03:57:29.885Z,90.16
2017-08-08T03:58:29.874Z,90.53
2017-08-08T03:59:29.870Z,89.58
2017-08-08T04:00:29.860Z,90.06
2017-08-08T04:01:29.857Z,89.77
2017-08-08T04:02:29.845Z,89.58
2017-08-08T04:03:29.848Z,89.87
2017-08-08T04:04:29.844Z,89.96
2017-08-08T04:05:29.840Z,88.91
2017-08-08T04:06:29.831Z,89.29
2017-08-08T04:07:29.823Z,89.1
2017-08-08T04:08:29.831Z,89.1
2017-08-08T04:09:29.817Z,89.15
2017-08-08T04:10:29.826Z,88.81
2017-08-08T04:11:29.818Z,89.34
2017-08-08T04:12:29.818Z,88.86
2017-08-08T04:13:29.809Z,88.86
2017-08-08T04:14:29.486Z,88.38
2017-08-08T04:15:29.787Z,87.66
2017-08-08T04:16:29.774Z,87.18
2017-08-08T04:17:29.780Z,86.7
2017-08-08T04:18:29.761Z,86.32
2017-08-08T04:19:29.770Z,86.32
2017-08-08T04:20:29.766Z,86.22
2017-08-08T04:21:29.755Z,85.6
2017-08-08T04:22:29.447Z,85.98
2017-08-08T04:23:29.753Z,85.69
2017-08-08T04:24:29.733Z,85.79
2017-08-08T04:25:29.742Z,85.06
2017-08-08T04:26:29.748Z,84.58
2017-08-08T04:27:29.738Z,83.82
2017-08-08T04:28:29.739Z,83.29
2017-08-08T04:29:29.732Z,82.23
2017-08-08T04:30:29.725Z,82.18
2017-08-08T04:31:29.723Z,80.93
2017-08-08T04:32:29.705Z,80.2
2017-08-08T04:33:29.715Z,79.38
2017-08-08T04:34:29.713Z,78.8
2017-08-08T04:35:29.714Z,77.4
2017-08-08T04:36:29.698Z,76.34
2017-08-08T04:37:29.712Z,75.32
2017-08-08T04:38:29.703Z,75.04
2017-08-08T04:39:29.700Z,73.73
2017-08-08T04:40:29.380Z,72.32
2017-08-08T04:41:29.385Z,71.65
2017-08-08T04:42:29.690Z,71.01
2017-08-08T04:43:29.695Z,70.09
2017-08-08T04:44:29.692Z,68.64
2017-08-08T04:45:29.693Z,67.61
2017-08-08T04:46:29.691Z,66.69
2017-08-08T04:47:29.686Z,65.05
2017-08-08T04:48:29.693Z,64.79
2017-08-08T04:49:29.677Z,63.67
2017-08-08T04:50:29.381Z,62.51
2017-08-08T04:51:29.676Z,61.57
2017-08-08T04:52:29.633Z,60.44
2017-08-08T04:53:29.375Z,59.48
2017-08-08T04:54:29.695Z,59.12
2017-08-08T04:55:29.691Z,57.96
2017-08-08T04:56:29.699Z,57.51
2017-08-08T04:57:29.695Z,57.12
2017-08-08T04:58:29.702Z,56.47
2017-08-08T04:59:29.700Z,55.89
2017-08-08T05:00:29.711Z,55.21
2017-08-08T05:01:29.710Z,55.15
2017-08-08T05:02:29.710Z,53.99
2017-08-08T05:03:29.716Z,52.46
2017-08-08T05:04:29.727Z,52.36
2017-08-08T05:05:29.710Z,52.53
2017-08-08T05:06:29.729Z,52.56
2017-08-08T05:07:29.734Z,52.27
2017-08-08T05:08:29.729Z,52.17
2017-08-08T05:09:29.723Z,51.78
2017-08-08T05:10:29.732Z,50.65
2017-08-08T05:11:29.741Z,50.74
2017-08-08T05:12:29.745Z,50.38
2017-08-08T05:13:29.753Z,49.22
2017-08-08T05:14:29.758Z,48.54
2017-08-08T05:15:29.749Z,48.57
2017-08-08T05:16:29.448Z,48.57
2017-08-08T05:17:29.775Z,48.27
2017-08-08T05:18:29.777Z,47.91
2017-08-08T05:19:29.785Z,47.03
2017-08-08T05:20:29.783Z,47.23
2017-08-08T05:21:29.818Z,46.67
2017-08-08T05:22:29.799Z,46.67
2017-08-08T05:23:29.789Z,45.92
2017-08-08T05:24:29.808Z,45.14
2017-08-08T05:25:29.812Z,44.58
2017-08-08T05:26:29.821Z,44.02
2017-08-08T05:27:29.819Z,43.65
2017-08-08T05:28:29.842Z,42.78
2017-08-08T05:29:29.838Z,42.41
2017-08-08T05:30:29.851Z,41.73
2017-08-08T05:31:29.866Z,41.16
2017-08-08T05:32:29.858Z,40.7
2017-08-08T05:33:29.879Z,39.82
2017-08-08T05:34:29.878Z,40.31
2017-08-08T05:35:29.883Z,39.26
2017-08-08T05:36:29.879Z,39.36
2017-08-08T05:37:29.896Z,38.87
2017-08-08T05:38:29.892Z,38.89
2017-08-08T05:39:29.917Z,38.79
2017-08-08T05:40:29.912Z,38.1
2017-08-08T05:41:29.933Z,38.3
2017-08-08T05:42:29.939Z,37.62
2017-08-08T05:43:29.952Z,37.52
2017-08-08T05:44:30.247Z,37.62
2017-08-08T05:45:29.961Z,37.52
2017-08-08T05:46:29.977Z,37.52
2017-08-08T05:47:29.982Z,37.43
2017-08-08T05:48:29.989Z,37.52
2017-08-08T05:49:29.996Z,37.62
2017-08-08T05:50:29.999Z,36.72
2017-08-08T05:51:30.015Z,37.13
2017-08-08T05:52:30.014Z,36.06
2017-08-08T05:53:30.034Z,37.04
2017-08-08T05:54:30.041Z,37.21
2017-08-08T05:55:29.743Z,37.41
2017-08-08T05:56:30.058Z,37.31
2017-08-08T05:57:30.070Z,37.12
2017-08-08T05:58:30.072Z,37.02
2017-08-08T05:59:30.081Z,37.41
2017-08-08T06:00:30.091Z,37.1
2017-08-08T06:01:30.094Z,37.5
2017-08-08T06:02:30.112Z,37.12
2017-08-08T06:03:30.121Z,36.24
2017-08-08T06:04:30.126Z,36.24
2017-08-08T06:05:30.140Z,36.82
2017-08-08T06:06:30.143Z,37.02
2017-08-08T06:07:30.145Z,36.72
2017-08-08T06:08:30.176Z,36.33
2017-08-08T06:09:30.171Z,36.53
2017-08-08T06:10:30.184Z,36.35
2017-08-08T06:11:30.193Z,36.25
2017-08-08T06:12:30.203Z,36.04
2017-08-08T06:13:30.206Z,36.74
2017-08-08T06:14:30.215Z,36.06
2017-08-08T06:15:30.230Z,36.25
2017-08-08T06:16:31.679Z,35.67
2017-08-08T06:17:30.233Z,36.16
2017-08-08T06:18:30.256Z,36.16
2017-08-08T06:19:30.272Z,36.25
2017-08-08T06:20:30.282Z,35.86
2017-08-08T06:21:30.273Z,36.25
2017-08-08T06:22:30.298Z,36.16
2017-08-08T06:23:29.988Z,36.82
2017-08-08T06:24:30.004Z,36.63
2017-08-08T06:25:30.317Z,37.12
2017-08-08T06:26:30.326Z,36.63
2017-08-08T06:27:30.332Z,36.14
2017-08-08T06:28:30.356Z,36.43
2017-08-08T06:29:30.346Z,36.22
2017-08-08T06:30:30.362Z,36.51
2017-08-08T06:31:30.371Z,37
2017-08-08T06:32:30.376Z,37.39
2017-08-08T06:33:30.393Z,37.1
2017-08-08T06:34:30.398Z,37.19
2017-08-08T06:35:30.407Z,37.19
2017-08-08T06:36:30.108Z,36.9
2017-08-08T06:37:30.429Z,37.39
2017-08-08T06:38:30.423Z,37.29
2017-08-08T06:39:30.443Z,37.18
2017-08-08T06:40:30.455Z,37.08
2017-08-08T06:41:30.452Z,37.16
2017-08-08T06:42:30.474Z,37.54
2017-08-08T06:43:30.475Z,37.64
2017-08-08T06:44:30.486Z,38.21
2017-08-08T06:45:30.501Z,38.31
2017-08-08T06:46:30.505Z,38.31
2017-08-08T06:47:30.525Z,38.4
2017-08-08T06:48:30.214Z,38.01
2017-08-08T06:49:30.544Z,38.21
2017-08-08T06:50:30.533Z,38.01
2017-08-08T06:51:30.535Z,38.6
2017-08-08T06:52:30.553Z,38.31
2017-08-08T06:53:30.567Z,38.21
2017-08-08T06:54:30.573Z,38.01
2017-08-08T06:55:30.583Z,38.31
2017-08-08T06:56:30.589Z,38.4
2017-08-08T06:57:30.598Z,38.23
2017-08-08T06:58:30.612Z,37.74
2017-08-08T06:59:30.618Z,37.35
2017-08-08T07:00:30.619Z,37.35
2017-08-08T07:01:30.639Z,37.46
2017-08-08T07:02:30.640Z,37.56
2017-08-08T07:03:30.661Z,37.56
2017-08-08T07:05:30.877Z,36.9
2017-08-08T07:07:30.688Z,36.14
2017-08-08T07:08:30.695Z,35.77
2017-08-08T07:09:30.698Z,35.47
2017-08-08T07:10:30.717Z,35.2
2017-08-08T07:11:30.732Z,34.63
2017-08-08T07:12:30.751Z,34.05
2017-08-08T07:13:30.757Z,33.58
2017-08-08T07:14:30.768Z,32.62
2017-08-08T07:15:30.760Z,32.42
2017-08-08T07:16:30.776Z,31.36
2017-08-08T07:17:30.781Z,31.56
2017-08-08T07:18:30.811Z,31.18
2017-08-08T07:19:30.504Z,30
2017-08-08T07:20:30.823Z,30.41
2017-08-08T07:21:30.839Z,30.32
2017-08-08T07:22:30.846Z,30.41
2017-08-08T07:23:30.853Z,29.94
2017-08-08T07:24:30.869Z,29.94
2017-08-08T07:25:30.885Z,30.51
2017-08-08T07:26:30.895Z,30.43
2017-08-08T07:27:30.908Z,30.04
2017-08-08T07:28:30.606Z,29.66
2017-08-08T07:29:30.922Z,29.85
2017-08-08T07:30:30.941Z,29.38
2017-08-08T07:31:30.954Z,29.28
2017-08-08T07:32:30.969Z,28.81
2017-08-08T07:33:30.988Z,28.53
2017-08-08T07:34:30.983Z,28.63
2017-08-08T07:35:30.993Z,28.81
2017-08-08T07:36:31.008Z,28.82
2017-08-08T07:37:31.026Z,28.81
2017-08-08T07:38:31.047Z,28.01
2017-08-08T07:39:31.054Z,28.69
2017-08-08T07:40:30.760Z,29.58
2017-08-08T07:41:31.080Z,29.38
2017-08-08T07:42:31.089Z,29.28
2017-08-08T07:43:31.105Z,28.99
2017-08-08T07:44:31.110Z,28.59
2017-08-08T07:45:31.130Z,27.81
2017-08-08T07:46:31.147Z,28.88
2017-08-08T07:47:31.149Z,29.75
2017-08-08T07:48:31.161Z,29.17
2017-08-08T07:49:31.171Z,28.68
2017-08-08T07:50:31.197Z,29.27
2017-08-08T07:51:31.210Z,28.88
2017-08-08T07:52:30.909Z,28.68
2017-08-08T07:53:31.220Z,28.68
2017-08-08T07:54:31.236Z,28.59
2017-08-08T07:55:31.258Z,28.99
2017-08-08T07:56:31.290Z,28.59
2017-08-08T07:57:31.281Z,27.83
2017-08-08T07:58:31.302Z,27.73
2017-08-08T07:59:31.301Z,27.83
2017-08-08T08:00:31.329Z,28.02
2017-08-08T08:01:31.330Z,28.61
2017-08-08T08:02:31.353Z,28.12
2017-08-08T08:03:31.367Z,28.12
2017-08-08T08:04:31.379Z,27.92
2017-08-08T08:05:31.400Z,27.74
2017-08-08T08:06:31.423Z,26.67
2017-08-08T08:07:31.428Z,27.07
2017-08-08T08:08:31.448Z,27.07
2017-08-08T08:09:31.456Z,26.79
2017-08-08T08:10:31.484Z,26.69
2017-08-08T08:11:31.487Z,27.07
2017-08-08T08:12:31.203Z,26.78
2017-08-08T08:13:31.535Z,26.86
2017-08-08T08:14:31.537Z,26.09
2017-08-08T08:15:31.553Z,26.28
2017-08-08T08:16:31.572Z,26.58
2017-08-08T08:17:31.586Z,25.6
2017-08-08T08:18:31.597Z,25.79
2017-08-08T08:19:31.309Z,26.09
2017-08-08T08:20:31.625Z,25.99
2017-08-08T08:21:31.653Z,26.58
2017-08-08T08:22:31.350Z,26.68
2017-08-08T08:23:31.682Z,26.56
2017-08-08T08:24:31.700Z,26.76
2017-08-08T08:25:31.718Z,26.84
2017-08-08T08:26:31.708Z,27.72
2017-08-08T08:27:31.740Z,28.2
2017-08-08T08:28:31.754Z,28.39
2017-08-08T08:29:31.768Z,28.67
2017-08-08T08:30:31.773Z,29.53
2017-08-08T08:31:31.787Z,29.61
2017-08-08T08:32:31.801Z,29.32
2017-08-08T08:33:31.812Z,30.1
2017-08-08T08:34:31.818Z,30.19
2017-08-08T08:35:31.528Z,30.38
2017-08-08T08:36:31.852Z,30.38
2017-08-08T08:37:31.861Z,30.68
2017-08-08T08:38:31.565Z,31.05
2017-08-08T08:39:31.572Z,31.45
2017-08-08T08:40:31.589Z,32.01
2017-08-08T08:41:31.912Z,32.87
2017-08-08T08:42:31.934Z,33.46
2017-08-08T08:43:31.926Z,33.73
2017-08-08T08:44:31.932Z,34.5
2017-08-08T08:45:31.943Z,34.4
2017-08-08T08:46:31.974Z,34.97
2017-08-08T08:47:31.968Z,35.26
2017-08-08T08:48:31.987Z,35.73
2017-08-08T08:49:32.000Z,36.02
2017-08-08T08:50:32.009Z,36.61
2017-08-08T08:51:32.021Z,36.9
2017-08-08T08:52:32.019Z,37.27
2017-08-08T08:53:32.036Z,36.3
2017-08-08T08:54:31.725Z,36.98
2017-08-08T08:55:32.058Z,37.06
2017-08-08T08:56:32.062Z,37.06
2017-08-08T08:57:32.073Z,37.54
2017-08-08T08:58:32.081Z,37.52
2017-08-08T08:59:32.090Z,38.4
2017-08-08T09:00:32.099Z,37.72
2017-08-08T09:01:31.800Z,38.09
2017-08-08T09:02:32.110Z,38.57
2017-08-08T09:03:32.121Z,38.75
2017-08-08T09:04:32.118Z,39.14
2017-08-08T09:05:32.129Z,39.62
2017-08-08T09:06:32.130Z,40.21
2017-08-08T09:07:32.150Z,40.5
2017-08-08T09:08:32.149Z,39.9
2017-08-08T09:09:32.160Z,40.39
2017-08-08T09:10:32.163Z,40.48
2017-08-08T09:11:32.161Z,40.58
2017-08-08T09:12:32.164Z,40.48
2017-08-08T09:13:32.186Z,40.56
2017-08-08T09:14:32.188Z,40.85
2017-08-08T09:15:32.203Z,41.05
2017-08-08T09:16:32.203Z,41.33
2017-08-08T09:17:32.202Z,41.82
2017-08-08T09:18:32.204Z,41.63
2017-08-08T09:19:32.213Z,42.02
2017-08-08T09:20:32.225Z,41.33
2017-08-08T09:21:32.221Z,41.33
2017-08-08T09:22:32.219Z,41.82
2017-08-08T09:23:32.240Z,42.11
2017-08-08T09:24:32.223Z,42.29
2017-08-08T09:25:32.247Z,42.86
2017-08-08T09:26:32.242Z,42.6
2017-08-08T09:27:32.245Z,42.38
2017-08-08T09:28:32.254Z,42.19
2017-08-08T09:29:32.270Z,42.67
2017-08-08T09:30:31.956Z,42.67
2017-08-08T09:31:32.258Z,42.85
2017-08-08T09:32:32.267Z,43.62
2017-08-08T09:33:32.273Z,43.91
2017-08-08T09:34:32.291Z,43.72
2017-08-08T09:35:32.279Z,44.1
2017-08-08T09:36:31.993Z,44.78
2017-08-08T09:37:32.296Z,44.67
2017-08-08T09:38:32.302Z,46.02
2017-08-08T09:39:32.305Z,45.34
2017-08-08T09:40:32.291Z,45.51
2017-08-08T09:41:32.300Z,46.29
2017-08-08T09:42:32.308Z,46.09
2017-08-08T09:43:32.304Z,45.81
2017-08-08T09:44:32.305Z,46.39
2017-08-08T09:45:32.323Z,46.97
2017-08-08T09:46:32.318Z,47.36
2017-08-08T09:47:32.318Z,46.77
2017-08-08T09:48:32.323Z,46.97
2017-08-08T09:49:32.317Z,46.39
2017-08-08T09:50:32.334Z,46.77
2017-08-08T09:51:32.339Z,47.84
2017-08-08T09:52:32.367Z,47.47
2017-08-08T09:53:32.341Z,46.6
2017-08-08T09:54:32.349Z,47.86
2017-08-08T09:55:32.342Z,47.28
2017-08-08T09:56:32.054Z,46.8
2017-08-08T09:57:32.351Z,47.09
2017-08-08T09:58:32.354Z,46.99
2017-08-08T09:59:32.367Z,46.67
2017-08-08T10:00:32.386Z,46.7
2017-08-08T10:01:32.366Z,46.51
2017-08-08T10:02:32.369Z,47.26
2017-08-08T10:03:32.376Z,47.77
2017-08-08T10:04:32.379Z,47.64
2017-08-08T10:05:32.070Z,47.45
2017-08-08T10:06:32.383Z,47.74
2017-08-08T10:07:32.386Z,47.55
2017-08-08T10:08:32.392Z,48.03
2017-08-08T10:09:32.393Z,48.15
2017-08-08T10:10:32.391Z,47.86
2017-08-08T10:11:32.381Z,47.96
2017-08-08T10:12:32.092Z,48.15
2017-08-08T10:13:32.395Z,48.25
2017-08-08T10:14:32.400Z,48.44
2017-08-08T10:15:32.404Z,48.54
2017-08-08T10:16:32.414Z,47.6
2017-08-08T10:17:32.097Z,47.79
2017-08-08T10:18:32.402Z,47.79
2017-08-08T10:19:32.413Z,47.6
2017-08-08T10:20:32.419Z,47.72
2017-08-08T10:21:32.419Z,47.42
2017-08-08T10:22:32.423Z,47.42
2017-08-08T10:23:32.422Z,48
2017-08-08T10:24:32.427Z,47.74
2017-08-08T10:25:32.433Z,47.35
2017-08-08T10:26:32.422Z,47.25
2017-08-08T10:27:32.445Z,47.74
2017-08-08T10:28:32.452Z,47.83
2017-08-08T10:29:32.755Z,47.45
2017-08-08T10:30:32.445Z,46.77
2017-08-08T10:31:32.462Z,47.06
2017-08-08T10:32:32.450Z,47.16
2017-08-08T10:33:32.465Z,47.55
2017-08-08T10:34:32.453Z,48.13
2017-08-08T10:35:32.475Z,48.32
2017-08-08T10:36:32.461Z,48.03
2017-08-08T10:38:32.474Z,48.13
2017-08-08T10:39:32.489Z,48.03
2017-08-08T10:40:32.481Z,47.55
2017-08-08T10:41:32.497Z,47.83
2017-08-08T10:42:32.482Z,47.83
2017-08-08T10:43:32.509Z,47.83
2017-08-08T10:44:32.497Z,47.93
2017-08-08T10:45:32.190Z,47.64
2017-08-08T10:46:32.520Z,48.03
2017-08-08T10:47:32.511Z,48.13
2017-08-08T10:48:32.514Z,48.52
2017-08-08T10:49:32.511Z,48.3
2017-08-08T10:50:32.218Z,48.1
2017-08-08T10:51:32.214Z,47.64
2017-08-08T10:52:32.531Z,47.83
2017-08-08T10:53:32.538Z,47.93
2017-08-08T10:54:32.539Z,48.42
2017-08-08T10:55:32.546Z,48.61
2017-08-08T10:56:32.541Z,48.22
2017-08-08T10:57:32.539Z,48.32
2017-08-08T10:58:32.562Z,48.03
2017-08-08T10:59:32.557Z,47.93
2017-08-08T11:00:32.551Z,48.13
2017-08-08T11:01:32.562Z,47.55
2017-08-08T11:02:32.562Z,47.93
2017-08-08T11:03:32.568Z,47.83
2017-08-08T11:04:32.577Z,47.83
2017-08-08T11:05:32.567Z,46.77
2017-08-08T11:06:32.570Z,47.47
2017-08-08T11:07:32.596Z,47.18
2017-08-08T11:08:32.591Z,46.89
2017-08-08T11:09:32.284Z,46.69
2017-08-08T11:10:32.601Z,46.69
2017-08-08T11:11:32.599Z,46.6
2017-08-08T11:12:32.605Z,47.28
2017-08-08T11:13:32.608Z,47.2
2017-08-08T11:14:32.599Z,45.94
2017-08-08T11:15:32.617Z,45.55
2017-08-08T11:16:32.866Z,45.65
2017-08-08T11:17:32.633Z,44.6
2017-08-08T11:18:32.617Z,44.41
2017-08-08T11:19:32.829Z,44.31
2017-08-08T11:20:32.673Z,44.21
2017-08-08T11:21:32.647Z,44.02
2017-08-08T11:22:32.644Z,44.02
2017-08-08T11:23:32.653Z,44.12
2017-08-08T11:24:32.648Z,43.54
2017-08-08T11:25:32.662Z,43.05
2017-08-08T11:26:32.679Z,43.16
2017-08-08T11:27:32.670Z,43.85
2017-08-08T11:28:32.667Z,44.04
2017-08-08T11:29:32.689Z,43.65
2017-08-08T11:30:32.371Z,43.95
2017-08-08T11:31:32.379Z,43.65
2017-08-08T11:32:32.389Z,43.26
2017-08-08T11:33:32.695Z,43.26
2017-08-08T11:34:32.707Z,43.16
2017-08-08T11:35:32.711Z,42.97
2017-08-08T11:36:32.712Z,43.36
2017-08-08T11:37:32.719Z,43.26
2017-08-08T11:38:32.724Z,43.87
2017-08-08T11:39:32.422Z,42.7
2017-08-08T11:40:32.728Z,42.63
2017-08-08T11:41:32.736Z,42.8
2017-08-08T11:42:32.742Z,42.53
2017-08-08T11:43:32.747Z,42.33
2017-08-08T11:44:32.765Z,41.65
2017-08-08T11:45:32.758Z,41.46
2017-08-08T11:46:32.767Z,41.28
2017-08-08T11:47:32.778Z,41.19
2017-08-08T11:48:32.784Z,40.72
2017-08-08T11:49:32.791Z,40.62
2017-08-08T11:50:32.781Z,40.45
2017-08-08T11:58:32.843Z,39.08
2017-08-08T11:59:32.832Z,38.69
2017-08-08T12:00:32.853Z,38.49
2017-08-08T12:01:32.855Z,38.4
2017-08-08T12:02:32.862Z,38.1
2017-08-08T12:03:32.869Z,38.59
2017-08-08T12:04:32.876Z,38.4
2017-08-08T12:05:32.887Z,38.01
2017-08-08T12:06:32.888Z,38.01
2017-08-08T12:07:32.581Z,37.81
2017-08-08T12:08:33.200Z,37.63
2017-08-08T12:09:32.912Z,37.62
2017-08-08T12:10:32.913Z,37.62
2017-08-08T12:11:32.916Z,37.45
2017-08-08T12:12:32.928Z,37.43
2017-08-08T12:13:32.936Z,37.05
2017-08-08T12:14:32.936Z,37.43
2017-08-08T12:15:32.955Z,37.33
2017-08-08T12:16:32.956Z,37.23
2017-08-08T12:17:32.955Z,37.43
2017-08-08T12:18:32.961Z,37.52
2017-08-08T12:19:32.964Z,37.62
2017-08-08T12:20:32.980Z,37.52
2017-08-08T12:21:32.989Z,37.33
2017-08-08T12:22:32.989Z,37.91
2017-08-08T12:23:32.992Z,37.52
2017-08-08T12:24:33.002Z,37.33
2017-08-08T12:25:33.006Z,37.33
2017-08-08T12:26:33.004Z,37.33
2017-08-08T12:27:33.016Z,37.33
2017-08-08T12:28:33.012Z,37.71
2017-08-08T12:29:32.719Z,37.52
2017-08-08T12:30:33.038Z,37.52
2017-08-08T12:31:33.045Z,37.81
2017-08-08T12:32:33.041Z,38.1
2017-08-08T12:33:33.042Z,38.2
2017-08-08T12:34:33.066Z,37.43
2017-08-08T12:35:33.074Z,38.1
2017-08-08T12:36:33.075Z,37.81
2017-08-08T12:37:33.071Z,37.6
2017-08-08T12:38:33.091Z,37.21
2017-08-08T12:39:33.085Z,37.31
2017-08-08T12:40:33.110Z,37.79
2017-08-08T12:41:33.105Z,38.26
2017-08-08T12:42:33.114Z,38.46
2017-08-08T12:43:33.113Z,38.75
2017-08-08T12:44:33.129Z,37.97
2017-08-08T12:45:33.127Z,38.46
2017-08-08T12:46:33.146Z,38.95
2017-08-08T12:47:33.144Z,39.12
2017-08-08T12:48:33.135Z,39.43
2017-08-08T12:49:33.145Z,39.14
2017-08-08T12:50:33.154Z,39.24
2017-08-08T12:51:33.168Z,39.03
2017-08-08T12:52:33.169Z,38.83
2017-08-08T12:53:33.159Z,38.64
2017-08-08T12:54:33.177Z,38.73
2017-08-08T12:55:33.177Z,39.03
2017-08-08T12:56:33.186Z,39.12
2017-08-08T12:57:33.550Z,39.59
2017-08-08T12:58:33.195Z,39.29
2017-08-08T12:59:33.186Z,39.98
2017-08-08T13:00:33.211Z,40.47
2017-08-08T13:01:33.215Z,40.15
2017-08-08T13:02:33.219Z,40.54
2017-08-08T13:03:33.209Z,40.25
2017-08-08T13:04:33.232Z,41.03
2017-08-08T13:05:32.917Z,40.73
2017-08-08T13:06:33.228Z,40.93